Time;durP1;ratioP1;P1;durP2;ratioP2;P2;SDS_P1;SDS_P2;PMS_P1;PMS_P2;Temp;Humidity;BMP_temperature;BMP_pressure;BME280_temperature;BME280_humidity;BME280_pressure;Samples;Min_cycle;Max_cycle;Signal;HPM_P1;HPM_P2
2021/07/30 00:02:13;;;;;;;16.65;10.13;;;691.60;2048.00;;;;;;4960039;28;20065;-80
2021/07/30 00:04:39;;;;;;;19.30;8.10;;;691.30;2073.60;;;;;;4973818;28;20031;-84
2021/07/30 00:07:05;;;;;;;15.50;7.38;;;691.50;2048.00;;;;;;4975014;28;20507;-81
2021/07/30 00:09:30;;;;;;;18.23;7.97;;;691.60;2048.00;;;;;;4975972;28;20101;-82
2021/07/30 00:11:56;;;;;;;16.52;7.47;;;691.50;2048.00;;;;;;4959998;28;20423;-83
2021/07/30 00:14:22;;;;;;;12.15;6.70;;;691.30;2073.60;;;;;;4977680;28;20497;-82
2021/07/30 00:16:48;;;;;;;15.77;6.50;;;691.20;2099.20;;;;;;4974606;28;20039;-84
2021/07/30 00:19:14;;;;;;;13.43;6.13;;;666.50;2099.20;;;;;;4956626;28;20089;-89
2021/07/30 00:21:39;;;;;;;15.90;7.07;;;666.50;2099.20;;;;;;4975270;28;20014;-81
2021/07/30 00:24:05;;;;;;;20.27;10.00;;;666.30;2124.80;;;;;;4959889;28;20058;-81
2021/07/30 00:26:31;;;;;;;35.88;15.30;;;666.30;2124.80;;;;;;4959290;28;20610;-83
2021/07/30 00:28:57;;;;;;;43.63;20.52;;;666.20;2150.40;;;;;;4958234;28;20038;-79
2021/07/30 00:31:22;;;;;;;59.55;27.95;;;666.30;2124.80;;;;;;4975219;28;20456;-79
2021/07/30 00:33:48;;;;;;;63.92;31.95;;;666.30;2124.80;;;;;;4976489;28;20019;-78
2021/07/30 00:36:14;;;;;;;78.05;35.88;;;666.30;2124.80;;;;;;4976423;28;20392;-79
2021/07/30 00:38:40;;;;;;;92.13;40.85;;;666.20;2124.80;;;;;;4959267;28;20043;-82
2021/07/30 00:41:06;;;;;;;88.70;43.65;;;666.10;2124.80;;;;;;4958812;28;20061;-82
2021/07/30 00:43:32;;;;;;;98.07;45.15;;;666.10;2124.80;;;;;;4959110;28;20046;-82
2021/07/30 00:45:59;;;;;;;96.35;45.92;;;666.10;2099.20;;;;;;4959093;28;20022;-82
2021/07/30 00:48:26;;;;;;;101.30;46.80;;;666.00;2099.20;;;;;;4959271;28;20046;-87
2021/07/30 00:50:52;;;;;;;113.80;48.88;;;666.20;2099.20;;;;;;4970567;28;20130;-89
2021/07/30 00:53:18;;;;;;;86.05;42.65;;;666.20;2099.20;;;;;;4939645;29;20031;-80
2021/07/30 00:55:48;;;;;;;77.20;38.60;;;666.30;2073.60;;;;;;4950942;29;20038;-88
2021/07/30 00:58:14;;;;;;;66.30;32.88;;;666.20;2048.00;;;;;;4971942;28;20035;-90
2021/07/30 01:00:41;;;;;;;54.25;27.20;;;666.10;2022.40;;;;;;4951228;29;20035;-86
2021/07/30 01:03:09;;;;;;;45.55;23.58;;;666.00;2022.40;;;;;;4956684;28;20020;-91
2021/07/30 01:05:35;;;;;;;37.83;17.15;;;640.80;1971.20;;;;;;4959838;28;20023;-87
2021/07/30 01:08:03;;;;;;;28.42;14.35;;;666.20;1945.60;;;;;;4955570;29;20477;-80
2021/07/30 01:10:28;;;;;;;24.85;11.57;;;666.30;1945.60;;;;;;4948642;29;20435;-82
2021/07/30 01:12:55;;;;;;;18.73;9.73;;;666.20;1920.00;;;;;;4956499;28;20032;-81
2021/07/30 01:15:22;;;;;;;19.42;8.73;;;666.20;1894.40;;;;;;4939077;29;20038;-81
2021/07/30 01:17:48;;;;;;;15.43;7.82;;;666.20;1894.40;;;;;;4939237;29;20031;-80
2021/07/30 01:20:14;;;;;;;15.70;6.95;;;666.20;1894.40;;;;;;4955466;29;20040;-90
2021/07/30 01:22:53;;;;;;;14.18;6.93;;;666.20;1894.40;;;;;;4950768;29;20046;-90
2021/07/30 01:25:20;;;;;;;13.00;5.88;;;666.20;1868.80;;;;;;4954157;28;20473;-82
2021/07/30 01:27:46;;;;;;;12.43;5.03;;;666.20;1868.80;;;;;;4955189;29;20082;-85
2021/07/30 01:30:17;;;;;;;15.20;5.45;;;666.20;1843.20;;;;;;4955624;28;20545;-87
2021/07/30 01:32:43;;;;;;;10.23;4.75;;;666.20;1843.20;;;;;;4938836;29;20027;-79
2021/07/30 01:35:09;;;;;;;14.07;5.38;;;666.20;1817.60;;;;;;4955900;29;20031;-84
2021/07/30 01:37:35;;;;;;;11.50;5.28;;;666.20;1843.20;;;;;;4954084;29;20043;-79
2021/07/30 01:40:01;;;;;;;15.90;5.28;;;666.20;1817.60;;;;;;4954074;29;20078;-79
2021/07/30 01:42:28;;;;;;;11.32;5.22;;;666.20;1817.60;;;;;;4947948;29;20478;-80
2021/07/30 01:44:54;;;;;;;9.82;4.75;;;666.20;1817.60;;;;;;4954635;29;20049;-83
2021/07/30 01:47:20;;;;;;;11.80;4.95;;;666.20;1817.60;;;;;;4938762;29;20027;-81
2021/07/30 01:49:47;;;;;;;12.20;4.70;;;666.20;1792.00;;;;;;4938735;29;20460;-82
2021/07/30 01:52:12;;;;;;;10.73;4.93;;;666.00;1817.60;;;;;;4938221;29;20084;-81
2021/07/30 01:54:39;;;;;;;17.13;6.00;;;666.10;1817.60;;;;;;4949054;29;20023;-81
2021/07/30 01:57:05;;;;;;;16.33;5.30;;;666.00;1817.60;;;;;;4954522;29;20109;-81
2021/07/30 01:59:30;;;;;;;9.38;4.57;;;666.20;1817.60;;;;;;4937787;29;20035;-81
2021/07/30 02:01:57;;;;;;;9.70;4.88;;;666.10;1817.60;;;;;;4951575;28;20039;-79
2021/07/30 02:04:22;;;;;;;10.80;4.47;;;666.10;1792.00;;;;;;4938165;29;20035;-79
2021/07/30 02:06:48;;;;;;;9.98;4.78;;;666.10;1792.00;;;;;;4938365;29;20031;-93
2021/07/30 02:09:14;;;;;;;8.85;4.97;;;666.20;1766.40;;;;;;4953734;29;20042;-82
2021/07/30 02:11:41;;;;;;;11.90;4.72;;;666.20;1766.40;;;;;;4938248;29;20046;-83
2021/07/30 02:14:15;;;;;;;8.85;4.70;;;666.30;1740.80;;;;;;4938360;29;20020;-82
2021/07/30 02:16:45;;;;;;;9.15;5.03;;;666.30;1766.40;;;;;;4947505;29;20031;-81
2021/07/30 02:19:11;;;;;;;6.35;4.38;;;666.30;1766.40;;;;;;4953661;29;20110;-83
2021/07/30 02:21:37;;;;;;;10.45;4.45;;;666.20;1766.40;;;;;;4938037;29;20178;-81
2021/07/30 02:24:03;;;;;;;8.23;5.07;;;666.20;1766.40;;;;;;4955185;29;20481;-83
2021/07/30 02:26:29;;;;;;;9.13;5.18;;;666.20;1792.00;;;;;;4937888;29;20114;-81
2021/07/30 02:28:55;;;;;;;8.80;4.82;;;666.30;1766.40;;;;;;4955076;29;20103;-81
2021/07/30 02:31:22;;;;;;;9.00;4.82;;;666.20;1766.40;;;;;;4954498;29;20035;-81
2021/07/30 02:33:48;;;;;;;9.57;4.53;;;666.20;1792.00;;;;;;4937262;29;20031;-81
2021/07/30 02:36:13;;;;;;;8.95;5.43;;;666.00;1792.00;;;;;;4953156;29;20493;-81
2021/07/30 02:38:39;;;;;;;7.72;4.85;;;666.00;1792.00;;;;;;4948761;29;20027;-80
2021/07/30 02:41:05;;;;;;;10.15;5.30;;;665.90;1792.00;;;;;;4954519;28;20027;-81
2021/07/30 02:43:30;;;;;;;12.52;5.28;;;666.00;1792.00;;;;;;4947548;29;20090;-80
2021/07/30 02:45:56;;;;;;;10.52;4.35;;;666.00;1766.40;;;;;;4955412;28;20019;-85
2021/07/30 02:48:22;;;;;;;9.13;5.28;;;665.90;1792.00;;;;;;4954845;29;20109;-86
2021/07/30 02:50:51;;;;;;;12.70;5.15;;;665.80;1792.00;;;;;;4949239;28;20383;-81
2021/07/30 02:53:16;;;;;;;8.98;5.05;;;665.70;1792.00;;;;;;4953370;29;20062;-79
2021/07/30 02:55:45;;;;;;;16.65;6.07;;;665.70;1817.60;;;;;;4952740;29;20058;-80
2021/07/30 02:58:14;;;;;;;8.80;5.03;;;665.60;1817.60;;;;;;4954470;29;20019;-88
2021/07/30 03:00:40;;;;;;;10.60;5.45;;;665.60;1817.60;;;;;;4947857;29;20436;-78
2021/07/30 03:03:06;;;;;;;9.73;4.88;;;665.60;1817.60;;;;;;4953212;29;20031;-79
2021/07/30 03:05:32;;;;;;;12.63;5.88;;;665.60;1817.60;;;;;;4954579;29;20493;-86
2021/07/30 03:07:59;;;;;;;9.68;4.85;;;665.60;1817.60;;;;;;4958460;29;20524;-79
2021/07/30 03:10:25;;;;;;;9.02;5.97;;;665.60;1817.60;;;;;;4963629;29;20162;-80
2021/07/30 03:12:50;;;;;;;12.65;6.22;;;640.90;1792.00;;;;;;4959593;29;20083;-82
2021/07/30 03:15:16;;;;;;;10.68;5.88;;;640.80;1817.60;;;;;;4954377;29;20024;-81
2021/07/30 03:17:42;;;;;;;9.38;5.60;;;640.70;1817.60;;;;;;4954433;29;20412;-80
2021/07/30 03:20:08;;;;;;;15.85;6.07;;;640.70;1817.60;;;;;;4951991;29;20028;-81
2021/07/30 03:22:35;;;;;;;10.60;5.70;;;640.40;1817.60;;;;;;4954171;29;20039;-79
2021/07/30 03:25:01;;;;;;;13.32;5.32;;;640.50;1817.60;;;;;;4950667;29;20035;-83
2021/07/30 03:27:27;;;;;;;14.68;7.00;;;640.60;1817.60;;;;;;4953945;29;20066;-84
2021/07/30 03:29:53;;;;;;;10.10;5.75;;;640.60;1817.60;;;;;;4949663;29;20121;-80
2021/07/30 03:32:19;;;;;;;9.82;6.03;;;640.50;1843.20;;;;;;4954127;29;20091;-88
2021/07/30 03:34:48;;;;;;;14.88;6.07;;;640.50;1843.20;;;;;;4937061;29;20027;-83
2021/07/30 03:37:15;;;;;;;11.70;5.78;;;640.40;1868.80;;;;;;4936986;29;20417;-80
2021/07/30 03:39:41;;;;;;;15.80;6.63;;;640.50;1843.20;;;;;;4948117;29;20031;-86
2021/07/30 03:42:08;;;;;;;10.75;6.60;;;640.50;1843.20;;;;;;4954343;28;20026;-80
2021/07/30 03:44:34;;;;;;;10.40;6.18;;;640.40;1843.20;;;;;;4954223;29;20042;-79
2021/07/30 03:47:00;;;;;;;16.05;7.63;;;640.40;1843.20;;;;;;4954255;29;20067;-87
2021/07/30 03:49:25;;;;;;;11.52;6.75;;;640.30;1868.80;;;;;;4946326;29;20039;-79
2021/07/30 03:51:51;;;;;;;13.27;7.10;;;640.40;1843.20;;;;;;4953732;28;20052;-82
2021/07/30 03:54:20;;;;;;;14.13;6.05;;;640.30;1843.20;;;;;;4954055;29;20044;-85
2021/07/30 03:56:46;;;;;;;18.08;7.20;;;640.30;1843.20;;;;;;4936544;29;20035;-79
2021/07/30 03:59:12;;;;;;;15.40;6.40;;;640.20;1868.80;;;;;;4937066;29;20451;-80
2021/07/30 04:01:40;;;;;;;13.40;6.57;;;640.30;1843.20;;;;;;4936440;29;20024;-79
2021/07/30 04:04:06;;;;;;;17.08;6.90;;;640.30;1843.20;;;;;;4953908;29;20026;-79
2021/07/30 04:06:32;;;;;;;13.65;6.55;;;640.30;1868.80;;;;;;4936179;29;20031;-86
2021/07/30 04:08:57;;;;;;;11.18;6.72;;;640.40;1843.20;;;;;;4953557;29;20026;-86
2021/07/30 04:11:23;;;;;;;10.73;6.72;;;640.40;1843.20;;;;;;4945297;29;20059;-79
2021/07/30 04:13:49;;;;;;;12.80;7.43;;;640.40;1843.20;;;;;;4952327;29;20110;-79
2021/07/30 04:16:15;;;;;;;11.00;6.72;;;640.40;1868.80;;;;;;4953763;28;20384;-79
2021/07/30 04:18:40;;;;;;;10.98;7.15;;;640.30;1868.80;;;;;;4963732;28;20059;-81
2021/07/30 04:21:07;;;;;;;9.82;6.00;;;640.40;1868.80;;;;;;4953510;28;20502;-81
2021/07/30 04:23:34;;;;;;;11.40;6.72;;;640.30;1868.80;;;;;;4946781;29;20488;-81
2021/07/30 04:26:01;;;;;;;15.57;6.80;;;640.40;1868.80;;;;;;4954239;28;20461;-79
2021/07/30 04:28:27;;;;;;;12.52;6.40;;;640.40;1868.80;;;;;;4940326;29;20012;-80
2021/07/30 04:30:52;;;;;;;15.18;7.78;;;640.50;1868.80;;;;;;4952744;29;20477;-80
2021/07/30 04:33:18;;;;;;;13.02;6.50;;;640.50;1868.80;;;;;;4948134;29;20023;-84
2021/07/30 04:35:44;;;;;;;10.38;6.75;;;640.60;1868.80;;;;;;4956054;29;20034;-80
2021/07/30 04:38:10;;;;;;;10.38;7.15;;;640.50;1868.80;;;;;;4957161;28;20389;-80
2021/07/30 04:40:40;;;;;;;12.50;6.72;;;640.50;1868.80;;;;;;4956888;29;20028;-79
2021/07/30 04:43:06;;;;;;;13.32;7.03;;;640.50;1868.80;;;;;;4951898;29;20023;-79
2021/07/30 04:45:34;;;;;;;10.07;6.43;;;640.50;1868.80;;;;;;4939640;29;20027;-79
2021/07/30 04:48:00;;;;;;;11.68;6.15;;;640.60;1894.40;;;;;;4939660;29;20027;-80
2021/07/30 04:50:26;;;;;;;12.82;6.75;;;640.70;1868.80;;;;;;4956588;28;20404;-87
2021/07/30 04:52:55;;;;;;;13.75;6.85;;;640.70;1894.40;;;;;;4956808;29;20043;-79
2021/07/30 04:55:21;;;;;;;13.55;7.00;;;640.70;1894.40;;;;;;4939502;29;20118;-80
2021/07/30 04:57:47;;;;;;;12.48;6.60;;;640.70;1894.40;;;;;;4939387;29;20111;-81
2021/07/30 05:00:14;;;;;;;12.98;6.78;;;640.90;1894.40;;;;;;4939525;29;20030;-79
2021/07/30 05:02:40;;;;;;;13.18;8.05;;;640.90;1894.40;;;;;;4950310;29;20023;-79
2021/07/30 05:05:06;;;;;;;14.90;7.47;;;665.60;1920.00;;;;;;4956570;28;20473;-79
2021/07/30 05:07:32;;;;;;;10.70;6.13;;;665.70;1920.00;;;;;;4955947;28;20027;-79
2021/07/30 05:09:58;;;;;;;12.95;6.53;;;665.80;1920.00;;;;;;4952612;29;20039;-78
2021/07/30 05:12:24;;;;;;;12.32;6.90;;;665.90;1920.00;;;;;;4956283;29;20023;-82
2021/07/30 05:14:49;;;;;;;21.50;12.10;;;665.90;1920.00;;;;;;4956522;29;20023;-81
2021/07/30 05:17:15;;;;;;;13.18;8.55;;;666.00;1920.00;;;;;;4956519;29;20754;-81
2021/07/30 05:19:41;;;;;;;17.42;6.55;;;666.00;1920.00;;;;;;4950508;29;20392;-82
2021/07/30 05:22:06;;;;;;;13.77;5.97;;;666.10;1894.40;;;;;;4956245;28;20031;-82
2021/07/30 05:24:38;;;;;;;10.55;6.28;;;666.20;1920.00;;;;;;4956400;29;20031;-82
2021/07/30 05:27:07;;;;;;;25.50;7.85;;;666.30;1920.00;;;;;;4950737;29;20051;-79
2021/07/30 05:29:34;;;;;;;12.20;6.07;;;666.40;1894.40;;;;;;4937973;29;20061;-81
2021/07/30 05:32:00;;;;;;;11.07;6.22;;;666.50;1868.80;;;;;;4939168;29;20031;-81
2021/07/30 05:34:26;;;;;;;11.32;6.05;;;691.20;1868.80;;;;;;4956286;29;20090;-81
2021/07/30 05:36:51;;;;;;;8.77;5.22;;;691.20;1894.40;;;;;;4951282;28;20437;-82
2021/07/30 05:39:17;;;;;;;9.63;5.30;;;691.20;1843.20;;;;;;4956611;28;20034;-84
2021/07/30 05:41:43;;;;;;;11.25;5.95;;;691.30;1817.60;;;;;;4939386;29;20027;-81
2021/07/30 05:44:09;;;;;;;8.40;5.35;;;691.40;1817.60;;;;;;4954080;29;20029;-79
2021/07/30 05:46:38;;;;;;;9.73;5.13;;;691.50;1792.00;;;;;;4956487;29;20027;-84
2021/07/30 05:49:04;;;;;;;8.73;5.30;;;691.60;1792.00;;;;;;4953249;29;20034;-77
2021/07/30 05:51:29;;;;;;;9.23;4.75;;;691.60;1817.60;;;;;;4955879;28;20051;-77
2021/07/30 05:53:55;;;;;;;9.05;5.05;;;691.70;1792.00;;;;;;4955956;29;20034;-77
2021/07/30 05:56:21;;;;;;;7.60;5.18;;;691.80;1817.60;;;;;;4956087;29;20031;-77
2021/07/30 05:58:46;;;;;;;11.55;5.55;;;691.90;1792.00;;;;;;4955589;29;20027;-79
2021/07/30 06:01:13;;;;;;;10.80;4.82;;;691.90;1740.80;;;;;;4953890;29;20481;-78
2021/07/30 06:03:40;;;;;;;7.50;4.43;;;692.10;1740.80;;;;;;4955902;29;20023;-77
2021/07/30 06:06:06;;;;;;;10.40;4.93;;;716.80;1740.80;;;;;;4955817;29;20027;-79
2021/07/30 06:08:32;;;;;;;10.07;4.75;;;716.80;1715.20;;;;;;4938442;29;20029;-78
2021/07/30 06:10:58;;;;;;;13.05;5.05;;;716.90;1715.20;;;;;;4938612;29;20122;-78
2021/07/30 06:13:23;;;;;;;7.78;4.40;;;717.10;1715.20;;;;;;4955676;29;20023;-77
2021/07/30 06:15:49;;;;;;;7.63;5.00;;;717.20;1689.60;;;;;;4955944;29;20031;-78
2021/07/30 06:18:15;;;;;;;10.02;4.65;;;717.20;1689.60;;;;;;4955767;29;20027;-76
2021/07/30 06:20:41;;;;;;;9.48;5.03;;;717.30;1689.60;;;;;;4955504;29;20027;-76
2021/07/30 06:23:07;;;;;;;7.63;5.35;;;717.40;1689.60;;;;;;4955617;29;20031;-80
2021/07/30 06:25:33;;;;;;;8.65;4.18;;;717.40;1664.00;;;;;;4938214;29;20107;-79
2021/07/30 06:28:00;;;;;;;27.38;6.13;;;717.50;1689.60;;;;;;4938204;29;20035;-79
2021/07/30 06:30:26;;;;;;;9.20;4.40;;;717.60;1664.00;;;;;;4955401;29;20020;-78
2021/07/30 06:32:52;;;;;;;12.15;4.80;;;717.70;1638.40;;;;;;4937779;29;20043;-80
2021/07/30 06:35:20;;;;;;;9.38;5.63;;;742.40;1664.00;;;;;;4938402;29;20031;-81
2021/07/30 06:37:46;;;;;;;7.85;4.50;;;742.50;1664.00;;;;;;4955838;29;20084;-80
2021/07/30 06:40:12;;;;;;;10.35;5.03;;;742.50;1689.60;;;;;;4938219;29;20074;-78
2021/07/30 06:42:38;;;;;;;12.57;4.72;;;742.50;1664.00;;;;;;4938067;29;20101;-81
2021/07/30 06:45:05;;;;;;;10.00;5.00;;;742.70;1664.00;;;;;;4955040;29;20034;-77
2021/07/30 06:47:37;;;;;;;7.15;4.53;;;742.80;1638.40;;;;;;4954816;28;20028;-78
2021/07/30 06:50:04;;;;;;;8.48;4.50;;;742.90;1612.80;;;;;;4954714;29;20019;-78
2021/07/30 06:52:33;;;;;;;6.22;4.70;;;743.00;1638.40;;;;;;4954891;29;20497;-78
2021/07/30 06:54:58;;;;;;;7.03;4.32;;;743.00;1561.60;;;;;;4954876;29;20027;-82
2021/07/30 06:57:24;;;;;;;11.75;4.90;;;743.10;1561.60;;;;;;4953907;29;20049;-81
2021/07/30 06:59:50;;;;;;;7.82;4.97;;;743.20;1587.20;;;;;;4953977;29;20495;-82
2021/07/30 07:02:16;;;;;;;6.82;4.55;;;743.30;1561.60;;;;;;4953941;29;20433;-82
2021/07/30 07:04:42;;;;;;;7.85;4.90;;;768.00;1587.20;;;;;;4951119;29;20043;-82
2021/07/30 07:07:08;;;;;;;6.57;3.95;;;768.20;1561.60;;;;;;4936349;29;20473;-82
2021/07/30 07:09:33;;;;;;;6.65;4.00;;;768.30;1561.60;;;;;;4937612;29;20035;-81
2021/07/30 07:12:01;;;;;;;6.57;4.32;;;768.40;1561.60;;;;;;4936632;29;20047;-81
2021/07/30 07:14:28;;;;;;;6.57;4.85;;;768.50;1561.60;;;;;;4937134;29;20034;-81
2021/07/30 07:16:54;;;;;;;6.53;4.57;;;768.60;1536.00;;;;;;4937346;29;20071;-81
2021/07/30 07:19:20;;;;;;;10.05;4.47;;;768.60;1536.00;;;;;;4937526;29;20058;-81
2021/07/30 07:21:45;;;;;;;8.05;4.45;;;768.90;1510.40;;;;;;4937389;29;20027;-81
2021/07/30 07:24:11;;;;;;;6.22;4.63;;;768.90;1484.80;;;;;;4937114;29;20047;-81
2021/07/30 07:26:38;;;;;;;9.20;4.60;;;768.90;1459.20;;;;;;4954782;29;20027;-87
2021/07/30 07:29:06;;;;;;;7.45;3.80;;;793.60;1459.20;;;;;;4953192;29;20158;-81
2021/07/30 07:31:31;;;;;;;7.57;4.50;;;793.60;1484.80;;;;;;4937351;29;20047;-83
2021/07/30 07:33:57;;;;;;;18.50;4.95;;;793.80;1433.60;;;;;;4937017;29;20441;-81
2021/07/30 07:36:23;;;;;;;7.47;4.30;;;793.90;1459.20;;;;;;4936980;29;20039;-79
2021/07/30 07:38:49;;;;;;;10.52;4.63;;;794.00;1433.60;;;;;;4937518;29;20171;-84
2021/07/30 07:41:15;;;;;;;13.52;4.55;;;794.00;1433.60;;;;;;4937378;29;20027;-78
2021/07/30 07:43:41;;;;;;;7.32;4.25;;;794.00;1408.00;;;;;;4954561;29;20034;-78
2021/07/30 07:46:07;;;;;;;8.40;4.60;;;794.10;1382.40;;;;;;4937428;29;20102;-78
2021/07/30 07:48:33;;;;;;;9.23;3.83;;;794.30;1382.40;;;;;;4937421;29;20087;-78
2021/07/30 07:51:00;;;;;;;6.35;4.35;;;794.40;1433.60;;;;;;4953789;28;20149;-79
2021/07/30 07:53:25;;;;;;;8.80;4.32;;;794.50;1382.40;;;;;;4953973;28;20388;-79
2021/07/30 07:56:02;;;;;;;6.80;3.80;;;794.50;1382.40;;;;;;4953960;29;20031;-80
2021/07/30 07:58:30;;;;;;;7.20;4.32;;;794.50;1382.40;;;;;;4935960;29;20174;-77
2021/07/30 08:00:56;;;;;;;9.82;4.05;;;819.30;1382.40;;;;;;4956228;28;20432;-77
2021/07/30 08:03:22;;;;;;;7.13;4.38;;;819.30;1382.40;;;;;;4956910;29;20102;-78
2021/07/30 08:05:47;;;;;;;12.57;4.40;;;819.30;1356.80;;;;;;4950550;29;20389;-78
2021/07/30 08:08:13;;;;;;;7.82;4.13;;;819.50;1382.40;;;;;;4956618;29;20480;-79
2021/07/30 08:10:39;;;;;;;8.27;4.53;;;819.50;1382.40;;;;;;4956556;29;20460;-78
2021/07/30 08:13:05;;;;;;;6.40;4.28;;;819.50;1382.40;;;;;;4957136;28;20027;-78
2021/07/30 08:15:30;;;;;;;11.27;4.07;;;819.60;1331.20;;;;;;4957021;29;20552;-82
2021/07/30 08:17:56;;;;;;;7.70;4.50;;;819.80;1382.40;;;;;;4956803;29;20022;-78
2021/07/30 08:20:22;;;;;;;6.80;4.22;;;819.80;1356.80;;;;;;4956580;29;20552;-77
2021/07/30 08:22:48;;;;;;;9.75;4.25;;;819.80;1305.60;;;;;;4956576;29;20102;-80
2021/07/30 08:25:13;;;;;;;7.47;3.80;;;819.90;1331.20;;;;;;4956259;29;20469;-77
2021/07/30 08:27:40;;;;;;;4.97;4.00;;;819.90;1305.60;;;;;;4950216;29;20082;-78
2021/07/30 08:30:06;;;;;;;8.07;3.97;;;820.00;1254.40;;;;;;4956808;28;20031;-79
2021/07/30 08:32:33;;;;;;;8.20;3.88;;;820.00;1254.40;;;;;;4956958;29;20027;-79
2021/07/30 08:35:01;;;;;;;10.02;4.57;;;820.10;1280.00;;;;;;4953148;29;20020;-87
2021/07/30 08:37:26;;;;;;;6.80;4.07;;;844.90;1331.20;;;;;;4956619;29;20024;-77
2021/07/30 08:39:52;;;;;;;5.28;3.60;;;844.90;1331.20;;;;;;4956393;29;20024;-83
2021/07/30 08:42:19;;;;;;;8.10;3.88;;;844.90;1305.60;;;;;;4947235;29;20098;-84
2021/07/30 08:44:45;;;;;;;7.20;3.65;;;844.90;1280.00;;;;;;4955481;29;20072;-84
2021/07/30 08:47:13;;;;;;;7.18;4.15;;;844.90;1280.00;;;;;;4955564;29;20035;-82
2021/07/30 08:49:39;;;;;;;10.27;4.30;;;844.90;1331.20;;;;;;4950404;29;20030;-85
2021/07/30 08:52:10;;;;;;;10.48;3.95;;;845.00;1305.60;;;;;;4955963;29;20039;-82
2021/07/30 08:54:37;;;;;;;8.90;4.70;;;845.00;1228.80;;;;;;4955536;29;20118;-81
2021/07/30 08:57:12;;;;;;;7.60;3.60;;;845.00;1254.40;;;;;;4938327;29;20038;-81
2021/07/30 08:59:39;;;;;;;6.93;4.22;;;845.00;1203.20;;;;;;4949166;29;20450;-83
2021/07/30 09:02:07;;;;;;;10.95;4.30;;;845.10;1228.80;;;;;;4955127;29;20074;-85
2021/07/30 09:04:32;;;;;;;7.60;3.90;;;845.20;1254.40;;;;;;4949789;29;20031;-86
2021/07/30 09:07:02;;;;;;;5.82;3.75;;;845.20;1228.80;;;;;;4956332;29;20034;-82
2021/07/30 09:09:29;;;;;;;8.13;4.57;;;845.20;1228.80;;;;;;4946881;29;20067;-82
2021/07/30 09:11:57;;;;;;;5.57;4.03;;;845.30;1228.80;;;;;;4954837;28;20054;-86
2021/07/30 09:14:37;;;;;;;13.35;4.93;;;845.20;1203.20;;;;;;4939806;29;20027;-87
2021/07/30 09:17:03;;;;;;;9.32;4.75;;;845.30;1177.60;;;;;;4957575;29;20034;-84
2021/07/30 09:19:29;;;;;;;6.63;3.88;;;845.30;1177.60;;;;;;4957432;29;20102;-82
2021/07/30 09:22:06;;;;;;;6.63;4.53;;;845.30;1203.20;;;;;;4953201;29;20106;-86
2021/07/30 09:24:46;;;;;;;4.25;3.20;;;845.50;1203.20;;;;;;4940463;29;20043;-81
2021/07/30 09:27:13;;;;;;;7.50;4.53;;;845.60;1152.00;;;;;;4952921;28;20031;-86
2021/07/30 09:29:40;;;;;;;7.20;3.80;;;845.60;1177.60;;;;;;4976303;28;20023;-85
2021/07/30 09:32:12;;;;;;;7.82;3.40;;;845.60;1177.60;;;;;;4976618;28;20113;-86
2021/07/30 09:34:43;;;;;;;6.68;3.80;;;845.70;1228.80;;;;;;4959053;28;20123;-87
2021/07/30 09:37:21;;;;;;;5.63;4.25;;;870.40;1177.60;;;;;;4976689;28;20026;-85
2021/07/30 09:39:52;;;;;;;5.32;3.80;;;870.50;1152.00;;;;;;4958888;28;20038;-88
2021/07/30 09:42:29;;;;;;;4.78;3.60;;;870.70;1100.80;;;;;;4976660;28;20037;-85
2021/07/30 09:45:00;;;;;;;7.63;4.40;;;870.70;1075.20;;;;;;4944634;29;20028;-87
2021/07/30 09:47:31;;;;;;;8.93;3.65;;;870.80;1126.40;;;;;;4964852;28;20031;-88
2021/07/30 09:50:04;;;;;;;13.95;4.45;;;870.90;1049.60;;;;;;4956810;28;20033;-84
2021/07/30 09:52:36;;;;;;;6.60;3.60;;;870.90;1100.80;;;;;;4937167;29;20047;-86
2021/07/30 09:55:07;;;;;;;6.40;3.75;;;871.00;1126.40;;;;;;4935226;29;20469;-85
2021/07/30 09:57:38;;;;;;;8.05;3.80;;;871.20;1075.20;;;;;;4920831;29;20031;-88
2021/07/30 10:00:15;;;;;;;7.03;3.72;;;871.30;1049.60;;;;;;4941425;29;20042;-81
2021/07/30 10:02:43;;;;;;;7.20;3.92;;;870.90;1075.20;;;;;;4922325;29;20405;-82
2021/07/30 10:05:10;;;;;;;7.75;3.92;;;871.10;1100.80;;;;;;4921541;29;20031;-86
2021/07/30 10:07:38;;;;;;;5.68;3.65;;;871.30;1100.80;;;;;;4920098;29;20031;-81
2021/07/30 10:10:09;;;;;;;6.78;4.10;;;896.00;1024.00;;;;;;4919828;29;20123;-81
2021/07/30 10:12:38;;;;;;;5.72;4.35;;;896.20;1075.20;;;;;;4919771;29;20035;-85
2021/07/30 10:15:05;;;;;;;5.35;3.78;;;896.20;1049.60;;;;;;4936939;29;20028;-87
2021/07/30 10:17:36;;;;;;;8.13;3.83;;;896.40;1024.00;;;;;;4936929;29;20482;-84
2021/07/30 10:20:08;;;;;;;10.20;4.60;;;896.60;998.40;;;;;;4935715;29;20409;-82
2021/07/30 10:23:09;;;;;;;8.30;4.35;;;896.70;972.80;;;;;;4920190;29;20046;-83
2021/07/30 10:25:41;;;;;;;5.90;4.10;;;896.80;1024.00;;;;;;4920245;29;20493;-87
2021/07/30 10:28:19;;;;;;;7.30;3.95;;;921.60;1024.00;;;;;;4939106;29;20106;-90
2021/07/30 10:30:57;;;;;;;8.40;3.95;;;896.80;998.40;;;;;;4938242;29;20409;-87
2021/07/30 10:33:33;;;;;;;9.07;4.35;;;896.10;1024.00;;;;;;4938869;29;20027;-78
2021/07/30 10:36:07;;;;;;;6.75;4.13;;;896.30;1049.60;;;;;;4955570;29;20027;-83
2021/07/30 10:38:34;;;;;;;7.40;4.13;;;896.20;1024.00;;;;;;4938560;29;20031;-83
2021/07/30 10:41:08;;;;;;;6.68;4.03;;;896.20;972.80;;;;;;4937987;29;20086;-82
2021/07/30 10:43:49;;;;;;;9.52;4.63;;;896.40;998.40;;;;;;4938327;29;20031;-77
2021/07/30 10:46:20;;;;;;;6.75;4.25;;;896.70;998.40;;;;;;4955419;28;20046;-76
2021/07/30 10:48:46;;;;;;;9.40;4.50;;;896.50;1024.00;;;;;;4955466;29;20023;-76
2021/07/30 10:51:18;;;;;;;10.07;4.30;;;896.60;972.80;;;;;;4963847;28;20094;-85
2021/07/30 10:53:44;;;;;;;8.25;4.18;;;896.90;947.20;;;;;;4974722;28;20030;-86
2021/07/30 10:56:21;;;;;;;13.15;4.13;;;921.70;998.40;;;;;;4974552;28;20110;-77
2021/07/30 10:58:52;;;;;;;8.63;3.88;;;922.00;1024.00;;;;;;4974681;28;20478;-76
2021/07/30 11:01:22;;;;;;;8.07;4.25;;;922.10;998.40;;;;;;4974226;28;20433;-77
2021/07/30 11:03:52;;;;;;;20.77;5.43;;;922.10;947.20;;;;;;4974271;28;20049;-88
2021/07/30 11:06:23;;;;;;;7.57;4.20;;;922.00;1024.00;;;;;;4949537;29;20031;-78
2021/07/30 11:11:49;;;;;;;8.25;3.97;;;921.60;1075.20;;;;;;4955352;29;20062;-84
2021/07/30 11:14:14;;;;;;;8.88;4.43;;;896.80;972.80;;;;;;4954266;29;20023;-79
2021/07/30 11:16:42;;;;;;;9.30;4.95;;;896.90;998.40;;;;;;4955007;29;20389;-81
2021/07/30 11:19:09;;;;;;;8.38;4.55;;;896.80;1049.60;;;;;;4952456;29;20083;-81
2021/07/30 11:21:35;;;;;;;12.35;4.72;;;896.90;1024.00;;;;;;4947651;29;20050;-81
2021/07/30 11:24:02;;;;;;;9.07;4.47;;;896.90;972.80;;;;;;4955149;28;20469;-86
2021/07/30 11:26:35;;;;;;;8.25;4.13;;;922.00;1024.00;;;;;;4946551;28;20019;-83
2021/07/30 11:29:10;;;;;;;10.73;4.90;;;947.60;947.20;;;;;;4952205;29;20114;-83
2021/07/30 11:32:00;;;;;;;8.45;4.22;;;947.90;972.80;;;;;;4964166;28;20445;-86
2021/07/30 11:34:40;;;;;;;6.43;4.15;;;948.10;972.80;;;;;;4954053;28;20110;-81
2021/07/30 11:37:08;;;;;;;9.38;4.15;;;948.10;921.60;;;;;;4972616;28;20027;-81
2021/07/30 11:39:52;;;;;;;7.10;4.15;;;948.00;972.80;;;;;;4967458;28;20130;-80
2021/07/30 11:42:37;;;;;;;7.67;4.73;;;947.80;972.80;;;;;;4956482;29;20083;-84
2021/07/30 11:45:07;;;;;;;11.50;4.63;;;947.80;921.60;;;;;;4957466;29;20037;-87
2021/07/30 11:47:34;;;;;;;7.22;4.18;;;972.90;921.60;;;;;;4958728;29;20374;-83
2021/07/30 11:50:11;;;;;;;9.73;4.25;;;972.90;921.60;;;;;;4954689;28;20441;-85
2021/07/30 11:52:38;;;;;;;5.38;4.32;;;973.20;921.60;;;;;;4940754;29;20059;-85
2021/07/30 11:55:18;;;;;;;9.10;4.85;;;973.20;947.20;;;;;;4939989;29;20027;-81
2021/07/30 11:57:46;;;;;;;8.40;4.65;;;972.90;947.20;;;;;;4940753;29;20459;-80
2021/07/30 12:00:28;;;;;;;7.47;4.55;;;973.40;921.60;;;;;;4941236;29;20065;-82
2021/07/30 12:03:18;;;;;;;10.60;5.13;;;973.00;921.60;;;;;;4939784;29;20477;-82
2021/07/30 12:05:44;;;;;;;7.20;3.95;;;973.20;896.00;;;;;;4940029;29;20031;-83
2021/07/30 12:08:10;;;;;;;8.68;4.88;;;973.00;921.60;;;;;;4939256;29;20043;-84
2021/07/30 12:10:37;;;;;;;8.93;4.85;;;973.30;947.20;;;;;;4957869;29;20039;-82
2021/07/30 12:13:03;;;;;;;8.80;4.47;;;973.30;896.00;;;;;;4956827;29;20106;-82
2021/07/30 12:15:29;;;;;;;6.63;3.88;;;948.10;870.40;;;;;;4940090;29;20027;-84
2021/07/30 12:18:03;;;;;;;10.98;4.50;;;972.90;921.60;;;;;;4937589;29;20489;-80
2021/07/30 12:20:37;;;;;;;8.82;4.60;;;973.00;921.60;;;;;;4943613;29;20114;-81